Decoded Metar for LZTT (POPRAD in SLOVAKIA) (IATA:TAT) | Meteo·Mobile Aviation Weather
aviador You're here:

LZTT Decoded Metar

POPRAD in SLOVAKIA
Report Time2018-09-19 20:00:00
UTC Time2018-09-19 20:28:23
Flight Rules vfr VFR
Wind260° at 07 kt
W.Decomp.*RWY 25: 7.0 kt HW 0.7 kt RCW
RWY 27: 6.8 kt HW 1.7 kt LCW
W.Rank260° ranks 1
Current wind is below 260° avg. (9.8)
Visibility9999 m
Phenomena:N/A
Clouds:Few 060 Hf
Expected CloudBase > 2,000 ft AGL from Temp-Dew spread
CeilingNone
Temp14°C (ISA +4)
Dew Point09°C (72% RH)
AAT11.3°C
QNH1023 hPa
Density Alt2,572 ft
Elevation2,320 ft
Report Wrong Elevation
Raw Report
LZTT 192000Z 26007KT 9999 FEW060 14/09 Q1023=

Extra information for LZTT:More info

Metar Taf Metar & Taf Last 4 Metars F.Rules Stats Wind Profile Meteogram Temp Stats Airport Information Weather charts Add Link Nearby VenuesMetar ALERT Operation Metar Decoded Social comments